createdAt,value
2023-06-06T00:01:58.504Z,99524.19
2023-06-06T00:04:46.049Z,99527.19
2023-06-06T00:07:33.266Z,99521.28
2023-06-06T00:10:19.384Z,99520.91
2023-06-06T00:13:04.402Z,99520.00
2023-06-06T00:15:49.513Z,99516.88
2023-06-06T00:18:34.637Z,99510.78
2023-06-06T00:21:21.905Z,99510.25
2023-06-06T00:24:06.624Z,99520.75
2023-06-06T00:26:51.907Z,99515.69
2023-06-06T00:29:36.877Z,99509.63
2023-06-06T00:32:21.956Z,99510.84
2023-06-06T00:35:06.730Z,99511.84
2023-06-06T00:37:51.350Z,99514.22
2023-06-06T00:40:36.446Z,99500.97
2023-06-06T00:43:21.553Z,99513.63
2023-06-06T00:46:07.108Z,99516.44
2023-06-06T00:48:52.123Z,99514.41
2023-06-06T00:51:38.023Z,99505.69
2023-06-06T00:54:23.397Z,99508.03
2023-06-06T00:57:10.380Z,99509.41
2023-06-06T00:59:55.977Z,99509.63
2023-06-06T01:02:44.404Z,99515.78
2023-06-06T01:05:30.428Z,99516.00
2023-06-06T01:08:16.770Z,99515.78
2023-06-06T01:11:10.003Z,99513.00
2023-06-06T01:14:29.070Z,99518.47
2023-06-06T01:17:17.813Z,99518.47
2023-06-06T01:20:07.818Z,99520.84
2023-06-06T01:22:53.814Z,99515.47
2023-06-06T01:25:41.155Z,99503.38
2023-06-06T01:28:28.313Z,99513.44
2023-06-06T01:31:19.492Z,99510.66
2023-06-06T01:34:11.565Z,99512.03
2023-06-06T01:37:08.033Z,99514.38
2023-06-06T01:39:56.241Z,99511.16
2023-06-06T01:42:45.215Z,99510.91
2023-06-06T01:45:32.723Z,99508.69
2023-06-06T01:48:19.460Z,99506.13
2023-06-06T01:51:05.904Z,99513.06
2023-06-06T01:53:51.112Z,99511.03
2023-06-06T01:56:35.920Z,99502.63
2023-06-06T01:59:21.450Z,99502.22
2023-06-06T02:02:07.217Z,99507.47
2023-06-06T02:04:52.006Z,99515.34
2023-06-06T02:07:38.020Z,99513.56
2023-06-06T02:10:25.246Z,99510.53
2023-06-06T02:13:10.097Z,99510.88
2023-06-06T02:15:55.719Z,99505.16
2023-06-06T02:18:45.063Z,99510.25
2023-06-06T02:21:30.106Z,99503.97
2023-06-06T02:24:14.998Z,99501.91
2023-06-06T02:26:59.941Z,99506.09
2023-06-06T02:29:44.688Z,99511.44
2023-06-06T02:32:30.844Z,99509.31
2023-06-06T02:35:16.860Z,99508.72
2023-06-06T02:38:01.596Z,99508.72
2023-06-06T02:40:46.471Z,99514.66
2023-06-06T02:43:31.694Z,99520.31
2023-06-06T02:46:16.793Z,99515.88
2023-06-06T02:49:01.763Z,99517.31
2023-06-06T02:51:47.370Z,99527.53
2023-06-06T02:54:32.304Z,99522.38
2023-06-06T02:57:17.200Z,99525.50
2023-06-06T03:00:08.300Z,99520.88
2023-06-06T03:02:53.438Z,99516.53
2023-06-06T03:05:39.372Z,99508.25
2023-06-06T03:08:24.361Z,99517.31
2023-06-06T03:11:09.312Z,99517.16
2023-06-06T03:13:55.146Z,99521.94
2023-06-06T03:16:40.678Z,99517.06
2023-06-06T03:19:26.187Z,99515.31
2023-06-06T03:22:13.404Z,99516.09
2023-06-06T03:24:59.163Z,99513.19
2023-06-06T03:27:44.151Z,99515.19
2023-06-06T03:30:29.255Z,99521.88
2023-06-06T03:33:16.194Z,99524.31
2023-06-06T03:36:03.716Z,99514.72
2023-06-06T03:38:49.346Z,99519.94
2023-06-06T03:41:35.611Z,99518.59
2023-06-06T03:44:20.911Z,99519.38
2023-06-06T03:47:06.326Z,99520.91
2023-06-06T03:49:51.461Z,99534.56
2023-06-06T03:52:36.945Z,99528.69
2023-06-06T03:55:23.078Z,99530.91
2023-06-06T03:58:07.985Z,99529.44
2023-06-06T04:00:53.404Z,99533.31
2023-06-06T04:03:39.206Z,99525.94
2023-06-06T04:06:26.121Z,99538.13
2023-06-06T04:09:13.824Z,99540.94
2023-06-06T04:11:58.520Z,99540.09
2023-06-06T04:14:43.698Z,99535.84
2023-06-06T04:17:28.878Z,99543.84
2023-06-06T04:20:13.864Z,99538.47
2023-06-06T04:23:00.885Z,99540.03
2023-06-06T04:25:45.816Z,99549.94
2023-06-06T04:28:32.234Z,99535.03
2023-06-06T04:31:17.695Z,99539.81
2023-06-06T04:34:04.381Z,99540.78
2023-06-06T04:36:52.322Z,99535.97
2023-06-06T04:39:39.926Z,99536.84
2023-06-06T04:42:33.427Z,99536.66
2023-06-06T04:45:18.252Z,99537.16
2023-06-06T04:48:03.525Z,99531.03
2023-06-06T04:50:50.048Z,99533.78
2023-06-06T04:53:45.532Z,99533.25
2023-06-06T04:56:30.679Z,99530.53
2023-06-06T04:59:17.814Z,99532.03
2023-06-06T05:02:03.520Z,99524.00
2023-06-06T05:04:55.900Z,99524.34
2023-06-06T05:07:40.790Z,99516.03
2023-06-06T05:10:26.233Z,99511.31
2023-06-06T05:13:19.891Z,99527.13
2023-06-06T05:16:14.636Z,99509.31
2023-06-06T05:18:59.716Z,99515.75
2023-06-06T05:21:45.023Z,99521.31
2023-06-06T05:24:31.051Z,99519.31
2023-06-06T05:27:16.340Z,99529.44
2023-06-06T05:30:06.427Z,99520.88
2023-06-06T05:32:53.108Z,99521.44
2023-06-06T05:35:38.135Z,99515.38
2023-06-06T05:38:25.022Z,99516.19
2023-06-06T05:41:21.805Z,99515.44
2023-06-06T05:44:07.505Z,99514.34
2023-06-06T05:47:05.381Z,99514.53
2023-06-06T05:49:56.792Z,99524.13
2023-06-06T05:52:41.947Z,99518.84
2023-06-06T05:55:32.387Z,99524.56
2023-06-06T05:58:22.757Z,99529.03
2023-06-06T06:01:10.261Z,99521.47
2023-06-06T06:03:55.639Z,99522.88
2023-06-06T06:06:52.960Z,99524.91
2023-06-06T06:09:38.153Z,99523.34
2023-06-06T06:12:29.473Z,99539.19
2023-06-06T06:15:14.460Z,99536.22
2023-06-06T06:18:08.236Z,99541.81
2023-06-06T06:20:56.778Z,99527.25
2023-06-06T06:23:42.479Z,99535.66
2023-06-06T06:26:27.438Z,99532.09
2023-06-06T06:29:12.646Z,99539.38
2023-06-06T06:32:04.825Z,99522.81
2023-06-06T06:34:54.968Z,99525.59
2023-06-06T06:37:45.282Z,99532.88
2023-06-06T06:40:32.996Z,99536.75
2023-06-06T06:46:13.306Z,99530.84
2023-06-06T06:48:58.448Z,99536.66
2023-06-06T06:51:44.270Z,99537.50
2023-06-06T06:54:29.878Z,99526.59
2023-06-06T06:57:17.478Z,99530.03
2023-06-06T07:00:13.313Z,99526.78
2023-06-06T07:03:00.530Z,99533.63
2023-06-06T07:05:55.754Z,99544.88
2023-06-06T07:08:43.073Z,99540.47
2023-06-06T07:11:28.178Z,99542.22
2023-06-06T07:14:13.091Z,99547.78
2023-06-06T07:16:58.400Z,99544.56
2023-06-06T07:19:43.984Z,99541.72
2023-06-06T07:22:29.229Z,99541.38
2023-06-06T07:25:14.747Z,99548.38
2023-06-06T07:27:59.697Z,99543.84
2023-06-06T07:30:45.526Z,99540.50
2023-06-06T07:33:37.585Z,99537.66
2023-06-06T07:36:22.590Z,99535.63
2023-06-06T07:39:07.605Z,99538.88
2023-06-06T07:41:57.376Z,99548.41
2023-06-06T07:44:42.157Z,99538.59
2023-06-06T07:47:27.439Z,99537.53
2023-06-06T07:50:12.415Z,99533.69
2023-06-06T07:52:57.336Z,99543.16
2023-06-06T07:55:44.204Z,99516.13
2023-06-06T07:59:01.462Z,99537.91
2023-06-06T08:01:46.606Z,99537.47
2023-06-06T08:04:34.148Z,99541.59
2023-06-06T08:07:20.684Z,99529.84
2023-06-06T08:10:15.846Z,99535.72
2023-06-06T08:13:04.870Z,99531.53
2023-06-06T08:15:50.660Z,99537.66
2023-06-06T08:18:38.078Z,99529.09
2023-06-06T08:21:26.469Z,99524.19
2023-06-06T08:24:11.717Z,99525.63
2023-06-06T08:26:58.044Z,99524.50
2023-06-06T08:29:42.844Z,99526.06
2023-06-06T08:32:30.877Z,99520.94
2023-06-06T08:35:15.652Z,99523.59
2023-06-06T08:38:01.046Z,99517.81
2023-06-06T08:40:46.465Z,99515.75
2023-06-06T08:43:37.248Z,99521.00
2023-06-06T08:46:25.606Z,99507.16
2023-06-06T08:49:11.285Z,99515.63
2023-06-06T08:51:57.661Z,99517.97
2023-06-06T08:54:46.171Z,99516.91
2023-06-06T08:57:49.133Z,99520.09
2023-06-06T09:00:38.831Z,99518.75
2023-06-06T09:03:25.522Z,99511.88
2023-06-06T09:06:14.317Z,99515.91
2023-06-06T09:08:59.408Z,99505.28
2023-06-06T09:11:46.769Z,99509.34
2023-06-06T09:14:33.990Z,99506.97
2023-06-06T09:17:19.286Z,99506.25
2023-06-06T09:20:17.401Z,99498.16
2023-06-06T09:23:10.551Z,99489.66
2023-06-06T09:25:55.912Z,99490.50
2023-06-06T09:28:41.303Z,99490.63
2023-06-06T09:31:33.407Z,99494.84
2023-06-06T09:34:27.696Z,99486.56
2023-06-06T09:37:15.315Z,99488.75
2023-06-06T09:40:21.438Z,99488.03
2023-06-06T09:43:09.450Z,99485.88
2023-06-06T09:46:04.880Z,99486.13
2023-06-06T09:48:59.161Z,99494.66
2023-06-06T09:51:44.457Z,99502.19
2023-06-06T09:54:29.439Z,99485.97
2023-06-06T09:57:14.661Z,99486.97
2023-06-06T10:00:02.992Z,99483.03
2023-06-06T10:02:58.971Z,99484.25
2023-06-06T10:05:50.385Z,99486.44
2023-06-06T10:08:37.235Z,99480.78
2023-06-06T10:11:22.920Z,99486.94
2023-06-06T10:14:09.409Z,99489.75
2023-06-06T10:16:55.320Z,99486.13
2023-06-06T10:19:41.844Z,99482.34
2023-06-06T10:22:30.547Z,99478.03
2023-06-06T10:25:19.559Z,99476.22
2023-06-06T10:28:11.548Z,99474.28
2023-06-06T10:31:07.184Z,99489.31
2023-06-06T10:33:55.665Z,99486.16
2023-06-06T10:36:44.224Z,99483.44
2023-06-06T10:39:30.183Z,99485.09
2023-06-06T10:42:16.084Z,99486.06
2023-06-06T10:45:00.753Z,99484.78
2023-06-06T10:47:49.235Z,99484.13
2023-06-06T10:50:35.658Z,99483.81
2023-06-06T10:53:20.947Z,99475.59
2023-06-06T10:56:09.588Z,99468.66
2023-06-06T10:58:55.109Z,99482.13
2023-06-06T11:01:48.193Z,99475.09
2023-06-06T11:04:39.930Z,99475.44
2023-06-06T11:07:28.333Z,99474.97
2023-06-06T11:10:13.046Z,99478.00
2023-06-06T11:13:27.072Z,99475.03
2023-06-06T11:16:12.220Z,99475.72
2023-06-06T11:19:04.272Z,99468.41
2023-06-06T11:21:50.767Z,99469.94
2023-06-06T11:24:36.640Z,99464.50
2023-06-06T11:27:22.496Z,99460.56
2023-06-06T11:30:08.959Z,99458.91
2023-06-06T11:32:56.047Z,99466.59
2023-06-06T11:35:41.167Z,99458.31
2023-06-06T11:38:27.719Z,99459.53
2023-06-06T11:41:13.007Z,99465.84
2023-06-06T11:43:58.134Z,99459.50
2023-06-06T11:46:55.553Z,99462.91
2023-06-06T11:49:47.770Z,99455.06
2023-06-06T11:52:33.141Z,99457.09
2023-06-06T11:55:18.250Z,99467.44
2023-06-06T11:58:05.068Z,99452.63
2023-06-06T12:00:56.772Z,99449.59
2023-06-06T12:03:43.690Z,99455.78
2023-06-06T12:06:29.260Z,99443.81
2023-06-06T12:09:15.173Z,99447.53
2023-06-06T12:12:04.732Z,99436.97
2023-06-06T12:14:57.665Z,99441.81
2023-06-06T12:17:42.354Z,99437.59
2023-06-06T12:20:27.357Z,99442.94
2023-06-06T12:23:12.481Z,99440.44
2023-06-06T12:25:58.020Z,99439.22
2023-06-06T12:28:57.578Z,99442.28
2023-06-06T12:31:46.398Z,99444.91
2023-06-06T12:34:59.892Z,99438.59
2023-06-06T12:37:48.369Z,99432.88
2023-06-06T12:40:35.964Z,99434.19
2023-06-06T12:43:21.411Z,99434.38
2023-06-06T12:46:06.355Z,99422.81
2023-06-06T12:48:51.385Z,99410.84
2023-06-06T12:51:39.896Z,99410.25
2023-06-06T12:54:25.620Z,99412.06
2023-06-06T12:57:12.399Z,99407.03
2023-06-06T12:59:58.115Z,99411.38
2023-06-06T13:02:44.032Z,99402.94
2023-06-06T13:05:29.048Z,99408.94
2023-06-06T13:08:22.287Z,99391.50
2023-06-06T13:11:18.390Z,99394.16
2023-06-06T13:14:03.447Z,99397.44
2023-06-06T13:17:10.208Z,99396.69
2023-06-06T13:19:56.944Z,99390.34
2023-06-06T13:22:42.541Z,99390.56
2023-06-06T13:25:27.594Z,99385.69
2023-06-06T13:28:12.584Z,99383.66
2023-06-06T13:30:57.753Z,99381.75
2023-06-06T13:33:42.592Z,99381.97
2023-06-06T13:36:27.571Z,99373.81
2023-06-06T13:39:12.571Z,99374.88
2023-06-06T13:41:57.851Z,99369.81
2023-06-06T13:44:42.920Z,99368.16
2023-06-06T13:47:27.906Z,99377.28
2023-06-06T13:50:13.196Z,99367.66
2023-06-06T13:52:57.811Z,99368.75
2023-06-06T13:55:43.040Z,99364.88
2023-06-06T13:58:31.825Z,99365.38
2023-06-06T14:01:19.996Z,99357.16
2023-06-06T14:04:06.216Z,99353.63
2023-06-06T14:06:51.978Z,99355.03
2023-06-06T14:09:37.102Z,99352.66
2023-06-06T14:12:22.203Z,99348.38
2023-06-06T14:15:07.464Z,99350.69
2023-06-06T14:17:54.247Z,99344.25
2023-06-06T14:21:00.107Z,99336.09
2023-06-06T14:23:48.408Z,99334.81
2023-06-06T14:26:33.326Z,99331.06
2023-06-06T14:29:18.597Z,99325.88
2023-06-06T14:32:04.063Z,99326.25
2023-06-06T14:34:49.065Z,99326.00
2023-06-06T14:37:33.914Z,99322.19
2023-06-06T14:40:18.758Z,99317.31
2023-06-06T14:43:03.814Z,99321.13
2023-06-06T14:45:48.663Z,99319.81
2023-06-06T14:48:33.670Z,99325.44
2023-06-06T14:51:18.646Z,99323.06
2023-06-06T14:54:03.565Z,99323.28
2023-06-06T14:56:48.087Z,99320.03
2023-06-06T14:59:33.136Z,99330.34
2023-06-06T15:02:18.552Z,99320.34
2023-06-06T15:05:03.710Z,99330.19
2023-06-06T15:07:48.567Z,99331.06
2023-06-06T15:10:33.541Z,99326.44
2023-06-06T15:13:18.743Z,99332.88
2023-06-06T15:16:09.507Z,99333.66
2023-06-06T15:18:56.876Z,99328.78
2023-06-06T15:21:41.585Z,99326.66
2023-06-06T15:24:28.997Z,99317.25
2023-06-06T15:27:13.905Z,99330.91
2023-06-06T15:29:58.818Z,99329.78
2023-06-06T15:32:43.735Z,99329.16
2023-06-06T15:35:28.823Z,99328.41
2023-06-06T15:38:15.705Z,99332.44
2023-06-06T15:41:00.639Z,99322.41
2023-06-06T15:43:45.667Z,99325.94
2023-06-06T15:46:30.845Z,99327.38
2023-06-06T15:49:18.440Z,99329.84
2023-06-06T15:52:03.480Z,99323.78
2023-06-06T15:54:48.153Z,99330.34
2023-06-06T15:57:33.021Z,99317.47
2023-06-06T16:00:18.675Z,99322.78
2023-06-06T16:03:05.386Z,99326.59
2023-06-06T16:05:50.291Z,99326.06
2023-06-06T16:08:35.301Z,99331.03
2023-06-06T16:11:21.206Z,99333.63
2023-06-06T16:14:06.536Z,99325.50
2023-06-06T16:16:52.184Z,99314.28
2023-06-06T16:19:37.066Z,99319.75
2023-06-06T16:22:22.352Z,99316.84
2023-06-06T16:25:07.793Z,99311.00
2023-06-06T16:27:52.390Z,99317.19
2023-06-06T16:30:37.559Z,99318.19
2023-06-06T16:33:22.360Z,99316.91
2023-06-06T16:36:07.347Z,99315.84
2023-06-06T16:38:52.306Z,99310.75
2023-06-06T16:41:37.418Z,99311.53
2023-06-06T16:44:22.544Z,99323.41
2023-06-06T16:47:07.494Z,99317.66
2023-06-06T16:49:52.623Z,99320.28
2023-06-06T16:52:40.852Z,99325.91
2023-06-06T16:55:26.005Z,99325.66
2023-06-06T16:58:10.807Z,99328.66
2023-06-06T17:00:56.545Z,99325.53
2023-06-06T17:03:41.704Z,99323.16
2023-06-06T17:06:26.556Z,99321.53
2023-06-06T17:09:11.886Z,99331.00
2023-06-06T17:11:56.928Z,99325.91
2023-06-06T17:14:42.126Z,99331.03
2023-06-06T17:17:27.065Z,99334.09
2023-06-06T17:20:13.046Z,99332.03
2023-06-06T17:22:58.071Z,99332.06
2023-06-06T17:25:50.994Z,99327.78
2023-06-06T17:28:36.508Z,99332.22
2023-06-06T17:31:21.788Z,99332.25
2023-06-06T17:34:06.402Z,99332.56
2023-06-06T17:36:51.505Z,99333.91
2023-06-06T17:39:36.448Z,99332.84
2023-06-06T17:42:21.531Z,99335.75
2023-06-06T17:45:08.050Z,99340.78
2023-06-06T17:47:52.847Z,99331.00
2023-06-06T17:50:38.008Z,99344.16
2023-06-06T17:53:23.313Z,99338.03
2023-06-06T17:56:07.856Z,99349.25
2023-06-06T17:58:53.226Z,99346.69
2023-06-06T18:01:37.702Z,99351.63
2023-06-06T18:04:22.909Z,99348.22
2023-06-06T18:07:07.916Z,99350.25
2023-06-06T18:09:52.755Z,99362.13
2023-06-06T18:12:37.757Z,99358.84
2023-06-06T18:15:23.255Z,99364.16
2023-06-06T18:18:08.397Z,99374.13
2023-06-06T18:20:53.195Z,99364.44
2023-06-06T18:23:40.060Z,99368.84
2023-06-06T18:26:25.041Z,99372.63
2023-06-06T18:29:10.199Z,99375.41
2023-06-06T18:31:55.835Z,99365.41
2023-06-06T18:34:40.731Z,99377.53
2023-06-06T18:37:25.775Z,99376.56
2023-06-06T18:40:14.624Z,99377.16
2023-06-06T18:42:59.070Z,99377.75
2023-06-06T18:45:48.455Z,99373.56
2023-06-06T18:48:34.024Z,99385.09
2023-06-06T18:51:18.886Z,99378.03
2023-06-06T18:54:03.919Z,99379.66
2023-06-06T18:56:48.494Z,99374.19
2023-06-06T18:59:34.264Z,99385.19
2023-06-06T19:02:18.877Z,99379.22
2023-06-06T19:05:06.618Z,99387.13
2023-06-06T19:07:51.399Z,99384.59
2023-06-06T19:10:36.666Z,99384.94
2023-06-06T19:13:22.271Z,99389.72
2023-06-06T19:16:07.479Z,99386.34
2023-06-06T19:18:52.291Z,99392.13
2023-06-06T19:21:37.114Z,99392.16
2023-06-06T19:24:21.929Z,99395.56
2023-06-06T19:27:07.040Z,99393.75
2023-06-06T19:29:51.815Z,99390.63
2023-06-06T19:32:36.676Z,99385.19
2023-06-06T19:35:22.151Z,99393.03
2023-06-06T19:38:07.336Z,99389.13
2023-06-06T19:40:52.119Z,99388.88
2023-06-06T19:43:37.855Z,99388.38
2023-06-06T19:46:22.762Z,99388.13
2023-06-06T19:49:09.136Z,99388.41
2023-06-06T19:51:54.052Z,99384.25
2023-06-06T19:54:39.505Z,99388.19
2023-06-06T19:57:24.352Z,99390.53
2023-06-06T20:00:10.142Z,99392.41
2023-06-06T20:02:57.892Z,99390.09
2023-06-06T20:05:42.964Z,99388.78
2023-06-06T20:08:27.951Z,99394.50
2023-06-06T20:11:13.153Z,99394.78
2023-06-06T20:14:00.165Z,99386.47
2023-06-06T20:16:45.872Z,99391.41
2023-06-06T20:19:31.354Z,99391.41
2023-06-06T20:22:16.116Z,99390.88
2023-06-06T20:25:01.361Z,99383.06
2023-06-06T20:27:46.113Z,99388.25
2023-06-06T20:30:32.395Z,99393.72
2023-06-06T20:33:20.233Z,99398.13
2023-06-06T20:36:06.264Z,99402.03
2023-06-06T20:38:51.839Z,99393.72
2023-06-06T20:41:36.903Z,99395.53
2023-06-06T20:44:22.184Z,99395.00
2023-06-06T20:47:07.390Z,99392.13
2023-06-06T20:49:52.190Z,99398.38
2023-06-06T20:52:38.293Z,99391.06
2023-06-06T20:55:23.098Z,99391.63
2023-06-06T20:58:08.679Z,99392.38
2023-06-06T21:00:54.064Z,99393.16
2023-06-06T21:03:38.820Z,99399.91
2023-06-06T21:06:23.809Z,99400.94
2023-06-06T21:09:08.553Z,99388.47
2023-06-06T21:11:53.684Z,99392.63
2023-06-06T21:14:38.217Z,99388.75
2023-06-06T21:17:23.354Z,99392.63
2023-06-06T21:20:09.627Z,99393.66
2023-06-06T21:22:54.486Z,99393.16
2023-06-06T21:25:40.336Z,99392.34
2023-06-06T21:28:24.922Z,99390.03
2023-06-06T21:31:10.575Z,99395.47
2023-06-06T21:33:55.399Z,99391.03
2023-06-06T21:36:40.713Z,99387.94
2023-06-06T21:39:25.399Z,99395.72
2023-06-06T21:42:10.452Z,99388.97
2023-06-06T21:44:55.316Z,99385.56
2023-06-06T21:47:40.564Z,99389.22
2023-06-06T21:50:26.957Z,99388.44
2023-06-06T21:53:12.184Z,99390.25
2023-06-06T21:55:57.287Z,99398.81
2023-06-06T21:58:42.333Z,99395.19
2023-06-06T22:01:27.312Z,99396.22
2023-06-06T22:04:13.638Z,99393.09
2023-06-06T22:07:03.108Z,99388.94
2023-06-06T22:09:47.868Z,99393.09
2023-06-06T22:12:33.062Z,99389.97
2023-06-06T22:15:17.984Z,99390.75
2023-06-06T22:18:03.270Z,99393.88
2023-06-06T22:20:48.172Z,99390.72
2023-06-06T22:23:34.541Z,99386.59
2023-06-06T22:26:19.450Z,99377.97
2023-06-06T22:29:06.557Z,99378.53
2023-06-06T22:31:52.641Z,99381.63
2023-06-06T22:34:37.339Z,99379.03
2023-06-06T22:37:25.130Z,99377.75
2023-06-06T22:40:10.254Z,99377.50
2023-06-06T22:42:56.277Z,99377.00
2023-06-06T22:45:41.309Z,99367.91
2023-06-06T22:48:26.145Z,99370.75
2023-06-06T22:51:11.032Z,99371.81
2023-06-06T22:53:56.062Z,99367.94
2023-06-06T22:56:41.089Z,99367.94
2023-06-06T22:59:26.700Z,99363.75
2023-06-06T23:02:11.478Z,99366.63
2023-06-06T23:04:56.466Z,99368.72
2023-06-06T23:07:41.737Z,99365.84
2023-06-06T23:10:27.157Z,99366.63
2023-06-06T23:13:12.017Z,99359.34
2023-06-06T23:15:56.808Z,99363.50
2023-06-06T23:18:41.885Z,99369.22
2023-06-06T23:21:29.604Z,99361.44
2023-06-06T23:24:14.826Z,99358.84
2023-06-06T23:26:59.941Z,99367.66
2023-06-06T23:29:44.920Z,99357.78
2023-06-06T23:32:30.498Z,99359.63
2023-06-06T23:35:15.323Z,99366.34
2023-06-06T23:38:00.458Z,99369.47
2023-06-06T23:40:45.289Z,99366.63
2023-06-06T23:43:29.863Z,99364.81
2023-06-06T23:46:14.950Z,99357.25
2023-06-06T23:48:59.777Z,99364.53
2023-06-06T23:51:44.811Z,99360.38
2023-06-06T23:54:29.745Z,99359.34
2023-06-06T23:57:14.800Z,99362.16
2023-06-06T23:59:59.657Z,99355.16
